Time;durP1;ratioP1;P1;durP2;ratioP2;P2;SDS_P1;SDS_P2;PMS_P1;PMS_P2;Temp;Humidity;BMP_temperature;BMP_pressure;BME280_temperature;BME280_humidity;BME280_pressure;Samples;Min_cycle;Max_cycle;Signal;HPM_P1;HPM_P2
2023/08/03 00:00:23;;;;;;;3.83;0.93;;;15.50;99.90;;;;;;5002044;28;20782;-66
2023/08/03 00:02:50;;;;;;;3.80;0.93;;;15.50;99.90;;;;;;4992979;28;20197;-66
2023/08/03 00:05:19;;;;;;;4.80;1.07;;;15.50;99.90;;;;;;5003572;28;20212;-67
2023/08/03 00:07:48;;;;;;;5.70;0.90;;;15.50;99.90;;;;;;5000203;28;20212;-67
2023/08/03 00:10:15;;;;;;;1.57;0.70;;;15.60;99.90;;;;;;4997813;28;20223;-67
2023/08/03 00:12:42;;;;;;;1.57;0.70;;;15.50;99.90;;;;;;4981009;28;20656;-66
2023/08/03 00:15:10;;;;;;;1.10;0.70;;;15.60;99.90;;;;;;4996064;28;20228;-67
2023/08/03 00:17:37;;;;;;;4.53;1.10;;;15.60;99.90;;;;;;4996116;28;20585;-65
2023/08/03 00:20:04;;;;;;;3.03;0.97;;;15.60;99.90;;;;;;4993605;28;20220;-68
2023/08/03 00:22:31;;;;;;;1.10;1.00;;;15.60;99.90;;;;;;4990081;28;20573;-66
2023/08/03 00:25:00;;;;;;;1.30;0.77;;;15.70;99.90;;;;;;4981952;28;20926;-66
2023/08/03 00:27:28;;;;;;;3.33;1.27;;;15.70;99.90;;;;;;4985750;28;20288;-66
2023/08/03 00:29:55;;;;;;;4.33;1.20;;;15.70;99.90;;;;;;4983161;28;20208;-67
2023/08/03 00:32:22;;;;;;;3.53;0.87;;;15.70;99.90;;;;;;4997464;28;20192;-67
2023/08/03 00:34:49;;;;;;;3.50;1.00;;;15.70;99.90;;;;;;4988851;28;20454;-67
2023/08/03 00:37:16;;;;;;;2.60;1.10;;;15.70;99.90;;;;;;4998987;28;20669;-67
2023/08/03 00:39:43;;;;;;;4.33;1.17;;;15.70;99.90;;;;;;4986193;28;20200;-67
2023/08/03 00:42:11;;;;;;;2.70;1.03;;;15.70;99.90;;;;;;4976595;28;20209;-68
2023/08/03 00:44:38;;;;;;;3.57;1.20;;;15.70;99.90;;;;;;4985816;28;20232;-66
2023/08/03 00:47:06;;;;;;;8.23;1.23;;;15.90;99.90;;;;;;5000061;28;20259;-68
2023/08/03 00:49:33;;;;;;;3.50;1.27;;;15.80;99.90;;;;;;4970939;28;20407;-65
2023/08/03 00:52:01;;;;;;;3.23;1.40;;;15.80;99.90;;;;;;4996592;28;20198;-68
2023/08/03 00:54:28;;;;;;;6.70;1.87;;;15.90;99.90;;;;;;4998033;28;20221;-67
2023/08/03 00:56:55;;;;;;;6.43;1.37;;;15.80;99.90;;;;;;4983394;28;20217;-67
2023/08/03 00:59:23;;;;;;;3.67;1.37;;;15.80;99.90;;;;;;5004585;28;20201;-65
2023/08/03 01:01:50;;;;;;;4.13;1.37;;;15.80;99.90;;;;;;4989915;28;20193;-67
2023/08/03 01:04:17;;;;;;;3.33;2.07;;;15.80;99.90;;;;;;4984129;28;20599;-68
2023/08/03 01:06:44;;;;;;;3.73;1.40;;;15.80;99.90;;;;;;4994114;28;20197;-67
2023/08/03 01:09:10;;;;;;;3.80;1.63;;;15.90;99.90;;;;;;5006405;28;20200;-67
2023/08/03 01:11:37;;;;;;;4.20;1.33;;;15.80;99.90;;;;;;4990518;28;20211;-65
2023/08/03 01:14:04;;;;;;;3.60;1.70;;;15.70;99.90;;;;;;4994040;28;20278;-68
2023/08/03 01:16:33;;;;;;;4.57;1.60;;;15.80;99.90;;;;;;4987064;28;20296;-67
2023/08/03 01:18:59;;;;;;;3.73;1.70;;;15.80;99.90;;;;;;4988559;28;20247;-67
2023/08/03 01:21:28;;;;;;;4.03;1.77;;;15.90;99.90;;;;;;5005193;28;20188;-66
2023/08/03 01:23:57;;;;;;;5.73;1.80;;;15.90;99.90;;;;;;4986846;28;20204;-68
2023/08/03 01:26:24;;;;;;;4.23;1.57;;;15.80;99.90;;;;;;4995752;28;20238;-65
2023/08/03 01:28:51;;;;;;;2.30;1.30;;;15.80;99.90;;;;;;5003663;28;20611;-68
2023/08/03 01:31:19;;;;;;;5.53;1.33;;;15.80;99.90;;;;;;4976522;28;20872;-67
2023/08/03 01:33:46;;;;;;;5.07;1.50;;;15.80;99.90;;;;;;4987656;28;20201;-66
2023/08/03 01:36:13;;;;;;;3.23;1.60;;;15.90;99.90;;;;;;5000696;28;20189;-67
2023/08/03 01:38:41;;;;;;;2.87;1.60;;;15.90;99.90;;;;;;4994464;28;20204;-68
2023/08/03 01:41:10;;;;;;;3.60;1.50;;;15.90;99.90;;;;;;4986369;28;20205;-67
2023/08/03 01:43:36;;;;;;;2.27;1.37;;;15.90;99.90;;;;;;4988526;28;20696;-68
2023/08/03 01:46:05;;;;;;;4.67;1.67;;;15.90;99.90;;;;;;4986096;28;20236;-65
2023/08/03 01:48:31;;;;;;;3.00;1.80;;;15.90;99.90;;;;;;4990607;28;20217;-67
2023/08/03 01:50:58;;;;;;;4.73;1.60;;;16.00;99.90;;;;;;4989625;28;20232;-66
2023/08/03 01:53:25;;;;;;;4.20;1.33;;;15.90;99.90;;;;;;5003617;28;20270;-68
2023/08/03 01:55:52;;;;;;;2.13;1.77;;;16.00;99.90;;;;;;4981279;28;20302;-66
2023/08/03 01:58:20;;;;;;;2.20;2.00;;;16.00;99.90;;;;;;5005554;28;20986;-68
2023/08/03 02:00:47;;;;;;;3.97;1.60;;;16.00;99.90;;;;;;4961315;28;20409;-66
2023/08/03 02:03:14;;;;;;;3.37;1.60;;;15.90;99.90;;;;;;5001327;28;20247;-69
2023/08/03 02:05:41;;;;;;;3.47;1.70;;;15.90;99.90;;;;;;4982026;28;20725;-66
2023/08/03 02:08:08;;;;;;;4.93;1.90;;;15.90;99.90;;;;;;5003806;28;20200;-68
2023/08/03 02:10:34;;;;;;;4.23;1.53;;;15.90;99.90;;;;;;4999049;28;20351;-66
2023/08/03 02:13:01;;;;;;;4.63;1.30;;;15.90;99.90;;;;;;4998220;28;20196;-66
2023/08/03 02:15:29;;;;;;;3.40;1.70;;;15.80;99.90;;;;;;4993396;28;20732;-69
2023/08/03 02:17:56;;;;;;;4.43;1.67;;;15.90;99.90;;;;;;4968324;28;20881;-69
2023/08/03 02:20:23;;;;;;;2.60;1.80;;;15.90;99.90;;;;;;4985587;28;20196;-68
2023/08/03 02:22:50;;;;;;;2.67;1.50;;;15.80;99.90;;;;;;4977101;28;20646;-68
2023/08/03 02:25:23;;;;;;;3.70;1.83;;;15.90;99.90;;;;;;4975663;28;20232;-67
2023/08/03 02:27:50;;;;;;;3.10;1.50;;;16.00;99.90;;;;;;5000697;28;20292;-67
2023/08/03 02:30:17;;;;;;;3.17;1.47;;;16.00;99.90;;;;;;4997738;28;20213;-68
2023/08/03 02:32:45;;;;;;;2.37;1.63;;;15.80;99.90;;;;;;4970043;28;20295;-65
2023/08/03 02:35:12;;;;;;;5.07;1.70;;;15.90;99.90;;;;;;4985941;28;20220;-67
2023/08/03 02:37:39;;;;;;;6.83;1.67;;;15.90;99.90;;;;;;4979274;28;20204;-65
2023/08/03 02:40:13;;;;;;;3.87;1.80;;;15.90;99.90;;;;;;4986241;28;20220;-67
2023/08/03 02:42:41;;;;;;;6.77;1.67;;;15.80;99.90;;;;;;4979006;28;20673;-66
2023/08/03 02:45:11;;;;;;;6.10;2.33;;;15.90;99.90;;;;;;4979290;28;20272;-69
2023/08/03 02:47:38;;;;;;;3.57;1.60;;;15.80;99.90;;;;;;4975948;28;20208;-66
2023/08/03 02:50:07;;;;;;;3.77;1.80;;;16.00;99.90;;;;;;4981844;28;20253;-68
2023/08/03 02:52:35;;;;;;;3.17;1.77;;;15.90;99.90;;;;;;4994499;28;20236;-68
2023/08/03 02:55:02;;;;;;;5.13;1.90;;;15.90;99.90;;;;;;4988909;28;20221;-68
2023/08/03 02:57:29;;;;;;;4.07;1.90;;;16.00;99.90;;;;;;4997177;28;20190;-66
2023/08/03 02:59:56;;;;;;;5.07;1.80;;;15.90;99.90;;;;;;4970987;28;20305;-67
2023/08/03 03:02:23;;;;;;;5.33;2.00;;;15.90;99.90;;;;;;4973481;28;20189;-66
2023/08/03 03:04:52;;;;;;;2.83;1.50;;;15.90;99.90;;;;;;4980827;28;20205;-68
2023/08/03 03:07:21;;;;;;;3.37;1.87;;;15.90;99.90;;;;;;4975477;28;20577;-65
2023/08/03 03:09:52;;;;;;;3.00;1.80;;;15.90;99.90;;;;;;4980823;28;20204;-68
2023/08/03 03:12:19;;;;;;;5.77;2.43;;;15.90;99.90;;;;;;4998287;28;20242;-66
2023/08/03 03:14:49;;;;;;;5.30;1.80;;;15.90;99.90;;;;;;4996235;28;20239;-68
2023/08/03 03:17:16;;;;;;;3.77;1.57;;;15.90;99.90;;;;;;4987161;28;20220;-66
2023/08/03 03:19:45;;;;;;;4.73;1.90;;;15.90;99.90;;;;;;4978920;28;20225;-68
2023/08/03 03:22:13;;;;;;;6.57;1.90;;;15.90;99.90;;;;;;4984628;28;20194;-67
2023/08/03 03:24:42;;;;;;;7.23;1.90;;;15.90;99.90;;;;;;4975317;28;20254;-67
2023/08/03 03:27:09;;;;;;;2.90;1.40;;;15.90;99.90;;;;;;4984679;28;20701;-68
2023/08/03 03:29:45;;;;;;;1.83;1.33;;;15.90;99.90;;;;;;4986950;28;20985;-68
2023/08/03 03:32:12;;;;;;;2.17;1.50;;;15.90;99.90;;;;;;5001213;28;20747;-68
2023/08/03 03:34:39;;;;;;;3.93;1.40;;;15.90;99.90;;;;;;4982247;28;20228;-68
2023/08/03 03:37:08;;;;;;;5.20;1.70;;;15.90;99.90;;;;;;4978912;28;20725;-68
2023/08/03 03:39:35;;;;;;;3.70;1.60;;;16.00;99.90;;;;;;4969663;28;20436;-68
2023/08/03 03:42:08;;;;;;;3.20;1.70;;;15.90;99.90;;;;;;4992349;28;20208;-68
2023/08/03 03:44:36;;;;;;;5.63;1.77;;;15.90;99.90;;;;;;4992560;28;20509;-68
2023/08/03 03:47:03;;;;;;;3.07;1.60;;;15.90;99.90;;;;;;4996682;28;20212;-66
2023/08/03 03:49:34;;;;;;;4.23;1.47;;;16.00;99.90;;;;;;4964531;28;20213;-67
2023/08/03 03:52:03;;;;;;;3.53;1.93;;;16.00;99.90;;;;;;5002904;28;20225;-68
2023/08/03 03:54:32;;;;;;;5.33;1.50;;;16.00;99.90;;;;;;4981790;28;20795;-66
2023/08/03 03:57:00;;;;;;;3.50;1.80;;;15.90;99.90;;;;;;4987432;28;20193;-68
2023/08/03 03:59:32;;;;;;;5.17;2.07;;;16.00;99.90;;;;;;4992282;28;20627;-66
2023/08/03 04:01:59;;;;;;;3.93;1.50;;;16.00;99.90;;;;;;4976375;28;20193;-66
2023/08/03 04:04:26;;;;;;;4.27;1.80;;;16.00;99.90;;;;;;4986355;28;20217;-66
2023/08/03 04:06:53;;;;;;;3.17;1.67;;;16.00;99.90;;;;;;4991098;28;20220;-69
2023/08/03 04:09:21;;;;;;;2.00;1.30;;;16.00;99.90;;;;;;4992068;28;20199;-65
2023/08/03 04:11:47;;;;;;;3.90;1.47;;;16.00;99.90;;;;;;4976284;28;20240;-65
2023/08/03 04:14:14;;;;;;;5.00;1.60;;;16.00;99.90;;;;;;4978871;28;20828;-67
2023/08/03 04:16:42;;;;;;;1.60;1.30;;;16.00;99.90;;;;;;4978881;28;20204;-68
2023/08/03 04:19:09;;;;;;;3.37;1.57;;;16.10;99.90;;;;;;4998291;28;20251;-66
2023/08/03 04:21:36;;;;;;;1.60;1.40;;;16.10;99.90;;;;;;4969990;28;20580;-68
2023/08/03 04:24:03;;;;;;;3.17;1.43;;;16.10;99.90;;;;;;4982091;28;20224;-67
2023/08/03 04:26:31;;;;;;;2.30;1.50;;;16.10;99.90;;;;;;4980591;28;20416;-68
2023/08/03 04:28:58;;;;;;;8.43;1.67;;;16.10;99.90;;;;;;5003033;28;20574;-68
2023/08/03 04:31:28;;;;;;;4.77;1.83;;;16.10;99.90;;;;;;4984220;28;20220;-68
2023/08/03 04:33:57;;;;;;;3.17;1.50;;;16.10;99.90;;;;;;4990880;28;20259;-68
2023/08/03 04:36:27;;;;;;;3.57;1.63;;;16.10;99.90;;;;;;4968293;28;20240;-66
2023/08/03 04:38:53;;;;;;;5.27;2.30;;;16.10;99.90;;;;;;5009254;28;20255;-68
2023/08/03 04:41:21;;;;;;;3.53;1.47;;;16.10;99.90;;;;;;4986841;28;20265;-66
2023/08/03 04:43:49;;;;;;;2.70;1.70;;;16.10;99.90;;;;;;4984637;28;20201;-68
2023/08/03 04:46:18;;;;;;;3.57;1.80;;;16.10;99.90;;;;;;4998687;28;20672;-65
2023/08/03 04:48:45;;;;;;;5.43;1.60;;;16.10;99.90;;;;;;4990352;28;20494;-68
2023/08/03 04:51:13;;;;;;;3.27;1.40;;;16.10;99.90;;;;;;5005681;28;20561;-67
2023/08/03 04:53:40;;;;;;;3.33;1.30;;;16.10;99.90;;;;;;4986757;28;20185;-69
2023/08/03 04:56:08;;;;;;;4.20;1.90;;;16.10;99.90;;;;;;4987480;28;20772;-67
2023/08/03 04:58:34;;;;;;;3.00;1.53;;;16.10;99.90;;;;;;4984388;28;20212;-66
2023/08/03 05:01:02;;;;;;;2.17;1.63;;;16.10;99.90;;;;;;4982184;28;20280;-67
2023/08/03 05:03:30;;;;;;;4.27;1.50;;;16.10;99.90;;;;;;4979158;28;20213;-69
2023/08/03 05:05:57;;;;;;;2.63;1.33;;;16.10;99.90;;;;;;4991588;28;20204;-69
2023/08/03 05:08:25;;;;;;;2.10;1.23;;;16.10;99.90;;;;;;4984274;28;20290;-68
2023/08/03 05:10:53;;;;;;;3.83;1.37;;;16.10;99.90;;;;;;4984064;28;20274;-66
2023/08/03 05:13:21;;;;;;;3.47;1.47;;;16.10;99.90;;;;;;4995050;28;20578;-67
2023/08/03 05:15:48;;;;;;;4.87;1.70;;;16.10;99.90;;;;;;5003006;28;20220;-69
2023/08/03 05:18:15;;;;;;;7.03;1.70;;;16.00;99.90;;;;;;4997214;28;20217;-66
2023/08/03 05:20:42;;;;;;;3.10;1.50;;;16.10;99.90;;;;;;4990097;28;20300;-69
2023/08/03 05:23:11;;;;;;;4.27;1.70;;;16.10;99.90;;;;;;4971200;28;20915;-66
2023/08/03 05:25:41;;;;;;;4.57;1.60;;;16.10;99.90;;;;;;4996781;28;20239;-68
2023/08/03 05:28:08;;;;;;;2.57;1.57;;;16.10;99.90;;;;;;5000779;28;20193;-66
2023/08/03 05:30:34;;;;;;;3.20;1.60;;;16.10;99.90;;;;;;4996518;28;20821;-69
2023/08/03 05:33:02;;;;;;;3.03;1.80;;;16.10;99.90;;;;;;5002349;28;20200;-67
2023/08/03 05:35:29;;;;;;;6.00;1.47;;;16.00;99.90;;;;;;4991792;28;20771;-69
2023/08/03 05:37:56;;;;;;;3.13;1.30;;;16.10;99.90;;;;;;5001450;28;20931;-68
2023/08/03 05:40:23;;;;;;;3.17;1.50;;;16.10;99.90;;;;;;4963568;28;20224;-69
2023/08/03 05:42:51;;;;;;;3.23;1.63;;;16.10;99.90;;;;;;5000008;28;20201;-69
2023/08/03 05:45:38;;;;;;;1.80;1.60;;;16.10;99.90;;;;;;4986979;28;20290;-69
2023/08/03 05:48:14;;;;;;;3.73;1.67;;;16.10;99.90;;;;;;4991452;28;20284;-69
2023/08/03 05:50:43;;;;;;;3.60;1.60;;;16.10;99.90;;;;;;4993766;28;20219;-67
2023/08/03 05:53:11;;;;;;;3.37;1.40;;;16.20;99.90;;;;;;5001916;28;20415;-69
2023/08/03 05:55:38;;;;;;;1.93;1.43;;;16.20;99.90;;;;;;4981063;28;20232;-69
2023/08/03 05:58:07;;;;;;;3.13;1.20;;;16.20;99.90;;;;;;4996286;28;20193;-67
2023/08/03 06:00:34;;;;;;;4.70;1.50;;;16.30;99.90;;;;;;4973293;28;20213;-68
2023/08/03 06:03:01;;;;;;;1.70;1.10;;;16.40;99.90;;;;;;4999544;28;20254;-68
2023/08/03 06:05:42;;;;;;;1.87;1.20;;;16.30;99.90;;;;;;4994779;28;20224;-68
2023/08/03 06:08:17;;;;;;;1.03;0.93;;;16.30;99.90;;;;;;4984957;28;20201;-68
2023/08/03 06:10:44;;;;;;;3.33;1.30;;;16.40;99.90;;;;;;4978487;28;20265;-65
2023/08/03 06:13:15;;;;;;;1.13;1.00;;;16.30;99.90;;;;;;4994873;28;20480;-68
2023/08/03 06:15:43;;;;;;;2.40;1.27;;;16.30;99.90;;;;;;4998006;28;20233;-66
2023/08/03 06:18:12;;;;;;;2.87;1.17;;;16.30;99.90;;;;;;4984114;28;20279;-68
2023/08/03 06:20:41;;;;;;;1.90;1.10;;;16.30;99.90;;;;;;4998183;28;20197;-68
2023/08/03 06:23:13;;;;;;;0.80;0.80;;;16.30;99.90;;;;;;4988727;28;20806;-67
2023/08/03 06:25:40;;;;;;;1.97;0.83;;;16.30;99.90;;;;;;5001688;28;20236;-66
2023/08/03 06:28:09;;;;;;;2.53;0.90;;;16.30;99.90;;;;;;4986384;28;20199;-68
2023/08/03 06:30:38;;;;;;;1.37;0.87;;;16.30;99.90;;;;;;4981967;28;20204;-68
2023/08/03 06:33:04;;;;;;;0.70;0.70;;;16.40;99.90;;;;;;4993244;28;20295;-66
2023/08/03 06:35:38;;;;;;;0.70;0.70;;;16.40;99.90;;;;;;4993487;28;20221;-68
2023/08/03 06:38:05;;;;;;;1.20;0.80;;;16.40;99.90;;;;;;4974293;28;20193;-66
2023/08/03 06:40:33;;;;;;;1.20;0.70;;;16.40;99.90;;;;;;4993719;28;20657;-68
2023/08/03 06:43:01;;;;;;;3.30;0.87;;;16.50;99.90;;;;;;4982393;28;20205;-68
2023/08/03 06:45:27;;;;;;;2.23;0.97;;;16.50;99.90;;;;;;4996072;28;20279;-66
2023/08/03 06:47:56;;;;;;;0.97;0.97;;;16.60;99.90;;;;;;4987975;28;20677;-66
2023/08/03 06:50:23;;;;;;;2.03;1.13;;;16.70;99.90;;;;;;5001124;28;20584;-69
2023/08/03 06:52:51;;;;;;;1.00;1.00;;;16.70;99.90;;;;;;4972498;28;20247;-66
2023/08/03 06:55:18;;;;;;;1.63;1.13;;;16.70;99.90;;;;;;4996895;28;20216;-67
2023/08/03 06:57:45;;;;;;;1.83;1.20;;;16.80;99.90;;;;;;4991042;28;20219;-66
2023/08/03 07:00:13;;;;;;;2.67;1.60;;;16.70;99.90;;;;;;4982470;28;20964;-68
2023/08/03 07:02:40;;;;;;;6.03;1.47;;;16.80;99.90;;;;;;4991582;28;20254;-68
2023/08/03 07:05:09;;;;;;;1.87;1.30;;;16.80;99.90;;;;;;4998033;28;20308;-68
2023/08/03 07:07:35;;;;;;;2.03;1.57;;;16.90;99.90;;;;;;4995233;28;20212;-68
2023/08/03 07:10:02;;;;;;;1.47;1.37;;;16.90;99.90;;;;;;4995964;28;20457;-67
2023/08/03 07:12:29;;;;;;;1.80;1.50;;;17.00;99.90;;;;;;4992499;28;20239;-69
2023/08/03 07:14:57;;;;;;;3.00;1.40;;;16.90;99.90;;;;;;4978528;28;20703;-66
2023/08/03 07:17:23;;;;;;;3.23;1.63;;;16.90;99.90;;;;;;4993554;28;20200;-69
2023/08/03 07:19:51;;;;;;;1.70;1.47;;;17.00;99.90;;;;;;4996176;28;20200;-66
2023/08/03 07:22:19;;;;;;;1.70;1.60;;;17.00;99.90;;;;;;4990842;28;20212;-67
2023/08/03 07:24:46;;;;;;;1.70;1.60;;;17.10;99.90;;;;;;4997099;28;20778;-66
2023/08/03 07:27:14;;;;;;;7.17;1.97;;;17.10;99.90;;;;;;4997649;28;20204;-68
2023/08/03 07:29:42;;;;;;;2.07;1.90;;;17.10;99.90;;;;;;4984134;28;20223;-66
2023/08/03 07:32:11;;;;;;;2.00;1.90;;;17.20;99.90;;;;;;4991619;28;20232;-68
2023/08/03 07:34:38;;;;;;;3.47;2.07;;;17.30;99.90;;;;;;4998579;28;20800;-65
2023/08/03 07:37:05;;;;;;;2.03;1.93;;;17.30;99.90;;;;;;4997120;28;20985;-67
2023/08/03 07:39:33;;;;;;;3.07;1.87;;;17.40;99.90;;;;;;4994826;28;20599;-67
2023/08/03 07:42:00;;;;;;;2.30;1.80;;;17.40;99.90;;;;;;4999956;28;20465;-67
2023/08/03 07:44:27;;;;;;;3.20;2.00;;;17.40;99.90;;;;;;4979206;28;20228;-67
2023/08/03 07:46:54;;;;;;;2.00;1.90;;;17.40;99.90;;;;;;4993161;28;20204;-65
2023/08/03 07:49:21;;;;;;;1.83;1.73;;;17.40;99.90;;;;;;4996521;28;20227;-67
2023/08/03 07:51:48;;;;;;;3.03;2.00;;;17.50;99.90;;;;;;4995028;28;20274;-65
2023/08/03 07:54:15;;;;;;;1.83;1.73;;;17.50;99.90;;;;;;4986776;28;20279;-67
2023/08/03 07:56:43;;;;;;;1.90;1.80;;;17.50;99.90;;;;;;4997528;28;20200;-66
2023/08/03 07:59:11;;;;;;;1.80;1.70;;;17.60;99.90;;;;;;4976742;28;20216;-67
2023/08/03 08:01:37;;;;;;;2.00;1.80;;;17.60;99.90;;;;;;4997097;28;20284;-67
2023/08/03 08:04:04;;;;;;;1.40;1.30;;;17.60;99.90;;;;;;4986760;28;20837;-68
2023/08/03 08:06:31;;;;;;;1.93;1.63;;;17.60;99.90;;;;;;4999542;28;20193;-66
2023/08/03 08:08:58;;;;;;;1.80;1.70;;;17.50;99.90;;;;;;4995446;28;20226;-66
2023/08/03 08:11:25;;;;;;;3.00;1.67;;;17.50;99.90;;;;;;4997686;28;20735;-68
2023/08/03 08:13:55;;;;;;;2.13;1.90;;;17.50;99.90;;;;;;4990710;28;20269;-65
2023/08/03 08:16:22;;;;;;;1.70;1.60;;;17.60;99.90;;;;;;4985644;28;20616;-68
2023/08/03 08:18:49;;;;;;;1.87;1.77;;;17.50;99.90;;;;;;4997642;28;20256;-66
2023/08/03 08:21:16;;;;;;;1.30;1.20;;;17.40;99.90;;;;;;5000616;28;20278;-66
2023/08/03 08:23:43;;;;;;;2.37;1.43;;;17.40;99.90;;;;;;4995288;28;20211;-66
2023/08/03 08:26:10;;;;;;;1.60;1.50;;;17.30;99.90;;;;;;5000133;28;20205;-69
2023/08/03 08:28:37;;;;;;;1.87;1.67;;;17.30;99.90;;;;;;5009638;28;20192;-69
2023/08/03 08:31:05;;;;;;;1.87;1.73;;;17.30;99.90;;;;;;4978879;28;20283;-69
2023/08/03 08:33:32;;;;;;;1.70;1.60;;;17.30;99.90;;;;;;5004119;28;20216;-68
2023/08/03 08:35:59;;;;;;;1.70;1.60;;;17.30;99.90;;;;;;4988233;28;20278;-68
2023/08/03 08:38:27;;;;;;;1.10;1.10;;;17.30;99.90;;;;;;4997763;28;20213;-68
2023/08/03 08:40:54;;;;;;;1.20;1.20;;;17.40;99.90;;;;;;4992115;28;20231;-66
2023/08/03 08:43:21;;;;;;;0.90;0.90;;;17.40;99.90;;;;;;5004785;28;20193;-69
2023/08/03 08:45:48;;;;;;;0.80;0.80;;;17.40;99.90;;;;;;4993796;28;20257;-65
2023/08/03 08:48:16;;;;;;;0.73;0.73;;;17.40;99.90;;;;;;4980530;28;20949;-69
2023/08/03 08:50:43;;;;;;;0.87;0.87;;;17.40;99.90;;;;;;4993894;28;20677;-66
2023/08/03 08:53:13;;;;;;;2.00;0.90;;;17.30;99.90;;;;;;5002117;28;20209;-69
2023/08/03 08:55:39;;;;;;;1.23;1.20;;;17.30;99.90;;;;;;5004493;28;20224;-66
2023/08/03 08:58:06;;;;;;;1.30;1.20;;;17.30;99.90;;;;;;4984295;28;20255;-66
2023/08/03 09:00:43;;;;;;;1.30;1.20;;;17.30;99.90;;;;;;5004266;28;20208;-68
2023/08/03 09:03:10;;;;;;;1.20;1.20;;;17.20;99.90;;;;;;4993634;28;20202;-66
2023/08/03 09:05:39;;;;;;;1.73;1.50;;;17.30;99.90;;;;;;4998344;28;20275;-68
2023/08/03 09:08:08;;;;;;;1.40;1.40;;;17.20;99.90;;;;;;4989166;28;20200;-68
2023/08/03 09:10:48;;;;;;;1.60;1.50;;;17.20;99.90;;;;;;5000948;28;20209;-68
2023/08/03 09:13:26;;;;;;;1.83;1.10;;;17.30;99.90;;;;;;5004251;28;20381;-68
2023/08/03 09:15:54;;;;;;;1.43;1.20;;;17.30;99.90;;;;;;4980524;28;20217;-66
2023/08/03 09:18:22;;;;;;;1.40;1.40;;;17.20;99.90;;;;;;4991171;28;20263;-69
2023/08/03 09:20:50;;;;;;;1.10;1.10;;;17.30;99.90;;;;;;4992853;28;20319;-65
2023/08/03 09:23:31;;;;;;;1.17;0.90;;;17.40;99.90;;;;;;4993489;28;20272;-68
2023/08/03 09:25:58;;;;;;;1.20;1.10;;;17.40;99.90;;;;;;4999754;28;20658;-66
2023/08/03 09:28:35;;;;;;;1.17;1.17;;;17.40;99.90;;;;;;5004524;28;20213;-69
2023/08/03 09:31:03;;;;;;;0.83;0.80;;;17.40;99.90;;;;;;5002005;28;20289;-68
2023/08/03 09:33:31;;;;;;;0.77;0.60;;;17.50;99.90;;;;;;4987501;28;20232;-68
2023/08/03 09:36:07;;;;;;;0.67;0.67;;;17.50;99.90;;;;;;4987652;28;20225;-66
2023/08/03 09:38:34;;;;;;;1.17;0.40;;;17.50;99.90;;;;;;5004968;28;20543;-70
2023/08/03 09:41:01;;;;;;;0.57;0.50;;;17.40;99.90;;;;;;5000999;28;20192;-69
2023/08/03 09:43:28;;;;;;;0.53;0.50;;;17.50;99.90;;;;;;4997510;28;20201;-69
2023/08/03 09:45:59;;;;;;;0.60;0.60;;;17.60;99.90;;;;;;4995477;28;20220;-66
2023/08/03 09:48:26;;;;;;;0.80;0.80;;;17.90;99.90;;;;;;4992887;28;20616;-69
2023/08/03 09:50:55;;;;;;;1.10;0.70;;;17.90;99.90;;;;;;5002777;28;20719;-67
2023/08/03 09:53:25;;;;;;;1.00;1.00;;;18.10;99.90;;;;;;4991287;28;20225;-69
2023/08/03 09:56:00;;;;;;;1.10;0.97;;;18.20;99.90;;;;;;4996751;28;20700;-67
2023/08/03 09:58:30;;;;;;;1.03;0.80;;;18.20;99.90;;;;;;4990361;28;20200;-69
2023/08/03 10:01:00;;;;;;;1.10;1.00;;;18.10;99.90;;;;;;4999942;28;20216;-67
2023/08/03 10:03:32;;;;;;;0.87;0.87;;;17.90;99.90;;;;;;5005189;28;20199;-69
2023/08/03 10:06:04;;;;;;;0.70;0.70;;;17.90;99.90;;;;;;4981604;28;20220;-69
2023/08/03 10:08:40;;;;;;;0.80;0.80;;;17.80;99.90;;;;;;4997738;28;20224;-67
2023/08/03 10:11:10;;;;;;;0.60;0.60;;;18.00;99.90;;;;;;4997463;28;20868;-69
2023/08/03 10:13:42;;;;;;;2.00;0.73;;;18.10;99.90;;;;;;5003360;28;20549;-69
2023/08/03 10:16:09;;;;;;;0.70;0.70;;;18.20;99.90;;;;;;4998812;28;20362;-68
2023/08/03 10:18:36;;;;;;;0.63;0.63;;;18.30;99.90;;;;;;5004389;28;20220;-68
2023/08/03 10:21:05;;;;;;;1.30;0.90;;;18.30;99.90;;;;;;4981423;28;20207;-67
2023/08/03 10:23:35;;;;;;;0.50;0.50;;;18.30;99.90;;;;;;4995386;28;20795;-68
2023/08/03 10:26:03;;;;;;;1.80;0.40;;;18.30;99.90;;;;;;4990633;28;20308;-68
2023/08/03 10:28:46;;;;;;;0.83;0.70;;;18.40;99.90;;;;;;4992497;28;20216;-69
2023/08/03 10:31:15;;;;;;;1.77;0.60;;;18.30;99.90;;;;;;4995018;28;21007;-67
2023/08/03 10:34:23;;;;;;;0.40;0.40;;;18.20;99.90;;;;;;4992621;28;20217;-67
2023/08/03 10:36:53;;;;;;;0.40;0.40;;;18.10;99.90;;;;;;4979045;28;20216;-66
2023/08/03 10:39:46;;;;;;;0.50;0.40;;;17.90;99.90;;;;;;4998299;28;20198;-68
2023/08/03 10:42:26;;;;;;;0.43;0.43;;;17.90;99.90;;;;;;4995845;28;20193;-65
2023/08/03 10:44:54;;;;;;;1.00;0.77;;;17.90;99.90;;;;;;4993174;28;20676;-65
2023/08/03 10:47:26;;;;;;;0.40;0.40;;;17.90;99.90;;;;;;4989375;28;20212;-68
2023/08/03 10:49:55;;;;;;;1.43;0.50;;;17.90;99.90;;;;;;5001535;28;20243;-66
2023/08/03 10:52:25;;;;;;;0.87;0.53;;;17.90;99.90;;;;;;4984112;28;20203;-68
2023/08/03 10:54:53;;;;;;;1.40;0.40;;;17.80;99.90;;;;;;4986220;28;20228;-66
2023/08/03 10:57:24;;;;;;;0.40;0.40;;;17.80;99.90;;;;;;4987435;28;20200;-67
2023/08/03 10:59:52;;;;;;;0.50;0.50;;;17.80;99.90;;;;;;4990336;28;20203;-66
2023/08/03 11:02:21;;;;;;;0.40;0.40;;;17.80;99.90;;;;;;4990851;28;20193;-68
2023/08/03 11:04:50;;;;;;;0.60;0.60;;;17.80;99.90;;;;;;4996869;28;20225;-66
2023/08/03 11:07:20;;;;;;;0.40;0.40;;;17.90;99.90;;;;;;4982447;28;20200;-68
2023/08/03 11:09:48;;;;;;;0.53;0.53;;;18.00;99.90;;;;;;4989645;28;20248;-66
2023/08/03 11:12:17;;;;;;;1.40;0.70;;;18.10;99.90;;;;;;4997517;28;20216;-67
2023/08/03 11:14:45;;;;;;;0.60;0.60;;;18.30;99.90;;;;;;5002470;28;20574;-65
2023/08/03 11:17:15;;;;;;;0.80;0.80;;;18.50;99.90;;;;;;4995241;28;20189;-68
2023/08/03 11:19:42;;;;;;;0.73;0.73;;;18.80;99.90;;;;;;5001404;28;20673;-67
2023/08/03 11:22:09;;;;;;;0.83;0.80;;;19.00;99.90;;;;;;4977008;28;20208;-67
2023/08/03 11:24:36;;;;;;;0.70;0.70;;;19.20;99.90;;;;;;4997798;28;20232;-67
2023/08/03 11:27:04;;;;;;;1.70;1.20;;;19.20;99.90;;;;;;4994163;28;20220;-68
2023/08/03 11:29:35;;;;;;;3.67;0.93;;;19.30;99.90;;;;;;4998726;28;20635;-68
2023/08/03 11:32:02;;;;;;;0.90;0.90;;;19.10;99.90;;;;;;4979987;28;20204;-67
2023/08/03 11:34:29;;;;;;;0.80;0.80;;;19.20;99.90;;;;;;4991007;28;20252;-68
2023/08/03 11:36:56;;;;;;;1.02;0.98;;;19.10;99.90;;;;;;4976762;28;20276;-65
2023/08/03 11:39:23;;;;;;;0.63;0.63;;;19.10;99.90;;;;;;5000577;28;20196;-67
2023/08/03 11:41:53;;;;;;;1.05;0.50;;;19.00;99.90;;;;;;4994886;28;20681;-65
2023/08/03 11:44:21;;;;;;;0.60;0.60;;;18.90;99.90;;;;;;4991815;28;20216;-66
2023/08/03 11:47:01;;;;;;;0.40;0.40;;;18.80;99.90;;;;;;4991919;28;20580;-66
2023/08/03 11:49:29;;;;;;;0.60;0.60;;;18.80;99.90;;;;;;4996587;28;20200;-67
2023/08/03 11:51:59;;;;;;;0.70;0.50;;;18.80;99.90;;;;;;4993075;28;20609;-65
2023/08/03 11:54:29;;;;;;;0.50;0.50;;;18.70;99.90;;;;;;4975798;28;20341;-67
2023/08/03 11:58:07;;;;;;;1.43;0.50;;;18.80;99.90;;;;;;4985041;28;20216;-65
2023/08/03 11:59:44;;;;;;;0.40;0.40;;;18.70;99.90;;;;;;4989561;28;20422;-67
2023/08/03 12:02:13;;;;;;;1.37;0.53;;;18.60;99.90;;;;;;4987849;28;20194;-65
2023/08/03 12:04:40;;;;;;;3.72;0.55;;;18.60;99.90;;;;;;4995046;28;20772;-67
2023/08/03 12:07:07;;;;;;;0.50;0.40;;;18.60;99.90;;;;;;5003111;28;20204;-67
2023/08/03 12:09:38;;;;;;;1.13;0.60;;;18.50;99.90;;;;;;4975310;28;20211;-66
2023/08/03 12:12:06;;;;;;;1.97;0.90;;;18.50;99.90;;;;;;4990196;28;20232;-67
2023/08/03 12:14:33;;;;;;;2.97;1.00;;;18.60;99.90;;;;;;4988593;28;20329;-68
2023/08/03 12:17:01;;;;;;;2.07;1.00;;;18.60;99.90;;;;;;4994014;28;20209;-67
2023/08/03 12:19:32;;;;;;;1.77;0.60;;;18.60;99.90;;;;;;4992225;28;20206;-65
2023/08/03 12:22:00;;;;;;;1.30;0.67;;;18.60;99.90;;;;;;4990199;28;20201;-67
2023/08/03 12:24:27;;;;;;;1.00;0.50;;;18.70;99.90;;;;;;4981719;28;20299;-66
2023/08/03 12:26:54;;;;;;;1.85;0.68;;;18.80;99.90;;;;;;4999548;28;20291;-67
2023/08/03 12:29:21;;;;;;;0.93;0.55;;;18.90;99.90;;;;;;4986024;28;20196;-66
2023/08/03 12:31:48;;;;;;;1.75;0.77;;;19.00;99.90;;;;;;4989276;28;20192;-66
2023/08/03 12:34:15;;;;;;;2.13;0.63;;;19.10;99.90;;;;;;4981392;28;20283;-65
2023/08/03 12:36:43;;;;;;;2.43;0.80;;;19.10;99.90;;;;;;4976189;28;20197;-67
2023/08/03 12:39:10;;;;;;;3.00;0.73;;;19.00;99.90;;;;;;4997616;28;20264;-65
2023/08/03 12:41:37;;;;;;;1.65;0.60;;;19.30;99.90;;;;;;4980986;28;20786;-67
2023/08/03 12:44:04;;;;;;;4.20;0.80;;;19.20;99.90;;;;;;4980891;28;20217;-66
2023/08/03 12:46:31;;;;;;;3.15;1.30;;;19.30;99.90;;;;;;4988938;28;20307;-67
2023/08/03 12:48:58;;;;;;;1.50;0.60;;;19.30;99.90;;;;;;4995617;28;20239;-67
2023/08/03 12:51:25;;;;;;;2.22;0.85;;;19.70;99.90;;;;;;5000009;28;20201;-65
2023/08/03 12:53:53;;;;;;;1.25;0.82;;;20.10;99.90;;;;;;4993796;28;20244;-67